createdAt,value
2023-05-09T00:00:21.578Z,1577.00
2023-05-09T00:01:21.661Z,1556.00
2023-05-09T00:02:21.678Z,1585.00
2023-05-09T00:03:21.799Z,1552.00
2023-05-09T00:04:21.813Z,1560.00
2023-05-09T00:05:21.797Z,1555.00
2023-05-09T00:06:21.869Z,1531.00
2023-05-09T00:07:21.902Z,1525.00
2023-05-09T00:08:21.965Z,1556.00
2023-05-09T00:09:22.005Z,1548.00
2023-05-09T00:10:22.063Z,1539.00
2023-05-09T00:11:22.152Z,1543.00
2023-05-09T00:12:22.160Z,1538.00
2023-05-09T00:13:22.262Z,1557.00
2023-05-09T00:14:22.251Z,1548.00
2023-05-09T00:15:22.314Z,1521.00
2023-05-09T00:16:22.425Z,1520.00
2023-05-09T00:17:22.414Z,1552.00
2023-05-09T00:18:22.435Z,1554.00
2023-05-09T00:19:22.594Z,1548.00
2023-05-09T00:20:22.562Z,1506.00
2023-05-09T00:21:22.592Z,1511.00
2023-05-09T00:22:22.653Z,1494.00
2023-05-09T00:23:22.703Z,1478.00
2023-05-09T00:24:22.739Z,1519.00
2023-05-09T00:25:22.790Z,1517.00
2023-05-09T00:26:22.843Z,1548.00
2023-05-09T00:27:22.910Z,1504.00
2023-05-09T00:28:22.948Z,1505.00
2023-05-09T00:29:22.986Z,1523.00
2023-05-09T00:30:23.034Z,1552.00
2023-05-09T00:31:23.098Z,1544.00
2023-05-09T00:32:23.188Z,1497.00
2023-05-09T00:33:23.201Z,1558.00
2023-05-09T00:34:23.241Z,1510.00
2023-05-09T00:35:23.379Z,1531.00
2023-05-09T00:36:23.354Z,1531.00
2023-05-09T00:37:23.402Z,1504.00
2023-05-09T00:38:23.489Z,1545.00
2023-05-09T00:39:23.509Z,1525.00
2023-05-09T00:40:23.551Z,1509.00
2023-05-09T00:41:23.606Z,1521.00
2023-05-09T00:42:23.658Z,1508.00
2023-05-09T00:43:23.720Z,1531.00
2023-05-09T00:44:23.755Z,1516.00
2023-05-09T00:45:23.801Z,1525.00
2023-05-09T00:46:23.895Z,1530.00
2023-05-09T00:47:24.011Z,1539.00
2023-05-09T00:48:23.940Z,1478.00
2023-05-09T00:49:24.009Z,1532.00
2023-05-09T00:50:24.048Z,1522.00
2023-05-09T00:51:24.167Z,1524.00
2023-05-09T00:52:24.141Z,1505.00
2023-05-09T00:53:24.189Z,1513.00
2023-05-09T00:54:24.270Z,1508.00
2023-05-09T00:55:24.338Z,1483.00
2023-05-09T00:56:24.383Z,1495.00
2023-05-09T00:57:24.414Z,1477.00
2023-05-09T00:58:24.462Z,1509.00
2023-05-09T00:59:24.522Z,1517.00
2023-05-09T01:00:24.589Z,1514.00
2023-05-09T01:01:24.659Z,1519.00
2023-05-09T01:02:24.751Z,1497.00
2023-05-09T01:03:24.795Z,1497.00
2023-05-09T01:04:24.810Z,1506.00
2023-05-09T01:05:24.838Z,1493.00
2023-05-09T01:06:24.900Z,1508.00
2023-05-09T01:07:25.026Z,1534.00
2023-05-09T01:08:25.003Z,1517.00
2023-05-09T01:09:25.032Z,1512.00
2023-05-09T01:10:25.115Z,1491.00
2023-05-09T01:11:25.161Z,1484.00
2023-05-09T01:12:25.219Z,1484.00
2023-05-09T01:13:25.293Z,1470.00
2023-05-09T01:14:25.326Z,1493.00
2023-05-09T01:15:25.380Z,1480.00
2023-05-09T01:16:25.484Z,1473.00
2023-05-09T01:17:25.461Z,1481.00
2023-05-09T01:18:25.531Z,1493.00
2023-05-09T01:19:25.566Z,1482.00
2023-05-09T01:20:25.626Z,1478.00
2023-05-09T01:21:25.678Z,1476.00
2023-05-09T01:22:25.732Z,1477.00
2023-05-09T01:23:25.853Z,1479.00
2023-05-09T01:24:25.859Z,1472.00
2023-05-09T01:25:25.892Z,1454.00
2023-05-09T01:26:25.939Z,1469.00
2023-05-09T01:27:25.993Z,1471.00
2023-05-09T01:28:26.054Z,1497.00
2023-05-09T01:29:26.097Z,1488.00
2023-05-09T01:30:26.133Z,1474.00
2023-05-09T01:31:26.240Z,1493.00
2023-05-09T01:32:26.278Z,1472.00
2023-05-09T01:33:26.344Z,1510.00
2023-05-09T01:34:26.378Z,1479.00
2023-05-09T01:35:26.471Z,1510.00
2023-05-09T01:36:26.490Z,1468.00
2023-05-09T01:37:26.524Z,1477.00
2023-05-09T01:38:26.589Z,1473.00
2023-05-09T01:39:26.724Z,1488.00
2023-05-09T01:40:26.698Z,1473.00
2023-05-09T01:41:26.730Z,1495.00
2023-05-09T01:42:26.777Z,1495.00
2023-05-09T01:43:26.851Z,1517.00
2023-05-09T01:44:26.901Z,1489.00
2023-05-09T01:45:26.966Z,1485.00
2023-05-09T01:46:27.043Z,1511.00
2023-05-09T01:47:27.100Z,1527.00
2023-05-09T01:48:27.136Z,1553.00
2023-05-09T01:49:27.186Z,1518.00
2023-05-09T01:50:27.230Z,1520.00
2023-05-09T01:51:27.316Z,1508.00
2023-05-09T01:52:27.357Z,1511.00
2023-05-09T01:53:27.429Z,1528.00
2023-05-09T01:54:27.473Z,1519.00
2023-05-09T01:55:27.681Z,1577.00
2023-05-09T01:56:27.611Z,1544.00
2023-05-09T01:57:27.633Z,1532.00
2023-05-09T01:58:27.703Z,1569.00
2023-05-09T01:59:27.778Z,1556.00
2023-05-09T02:00:27.842Z,1547.00
2023-05-09T02:01:27.888Z,1560.00
2023-05-09T02:02:27.979Z,1533.00
2023-05-09T02:03:27.983Z,1568.00
2023-05-09T02:04:28.021Z,1575.00
2023-05-09T02:05:28.065Z,1569.00
2023-05-09T02:06:28.126Z,1550.00
2023-05-09T02:07:28.173Z,1550.00
2023-05-09T02:08:28.247Z,1582.00
2023-05-09T02:09:28.294Z,1562.00
2023-05-09T02:10:28.374Z,1561.00
2023-05-09T02:11:28.485Z,1551.00
2023-05-09T02:12:28.456Z,1564.00
2023-05-09T02:13:28.549Z,1551.00
2023-05-09T02:14:28.568Z,1572.00
2023-05-09T02:15:28.623Z,1555.00
2023-05-09T02:16:28.685Z,1558.00
2023-05-09T02:17:28.758Z,1577.00
2023-05-09T02:18:28.802Z,1569.00
2023-05-09T02:19:28.831Z,1573.00
2023-05-09T02:20:28.886Z,1528.00
2023-05-09T02:21:29.299Z,1531.00
2023-05-09T02:22:28.986Z,1552.00
2023-05-09T02:23:29.064Z,1541.00
2023-05-09T02:24:29.149Z,1536.00
2023-05-09T02:25:29.177Z,1567.00
2023-05-09T02:26:29.229Z,1547.00
2023-05-09T02:27:29.367Z,1533.00
2023-05-09T02:28:29.351Z,1565.00
2023-05-09T02:29:29.399Z,1531.00
2023-05-09T02:30:29.471Z,1558.00
2023-05-09T02:31:29.587Z,1535.00
2023-05-09T02:32:29.708Z,1551.00
2023-05-09T02:33:29.661Z,1557.00
2023-05-09T02:34:29.697Z,1555.00
2023-05-09T02:35:29.758Z,1556.00
2023-05-09T02:36:29.809Z,1522.00
2023-05-09T02:37:29.869Z,1541.00
2023-05-09T02:38:29.931Z,1573.00
2023-05-09T02:39:29.993Z,1531.00
2023-05-09T02:40:30.062Z,1529.00
2023-05-09T02:41:30.131Z,1559.00
2023-05-09T02:42:30.176Z,1584.00
2023-05-09T02:43:30.331Z,1546.00
2023-05-09T02:44:30.285Z,1527.00
2023-05-09T02:45:30.329Z,1560.00
2023-05-09T02:46:30.442Z,1554.00
2023-05-09T02:47:30.494Z,1546.00
2023-05-09T02:48:30.510Z,1558.00
2023-05-09T02:49:32.330Z,1575.00
2023-05-09T02:50:30.611Z,1566.00
2023-05-09T02:51:30.663Z,1534.00
2023-05-09T02:52:30.738Z,1537.00
2023-05-09T02:53:30.787Z,1546.00
2023-05-09T02:54:30.873Z,1565.00
2023-05-09T02:55:30.903Z,1580.00
2023-05-09T02:56:30.952Z,1568.00
2023-05-09T02:57:31.035Z,1544.00
2023-05-09T02:58:31.076Z,1526.00
2023-05-09T02:59:31.206Z,1524.00
2023-05-09T03:00:31.187Z,1557.00
2023-05-09T03:01:31.332Z,1530.00
2023-05-09T03:02:31.417Z,1530.00
2023-05-09T03:03:31.401Z,1530.00
2023-05-09T03:04:31.407Z,1543.00
2023-05-09T03:05:31.482Z,1528.00
2023-05-09T03:06:31.520Z,1522.00
2023-05-09T03:07:31.599Z,1549.00
2023-05-09T03:08:31.645Z,1548.00
2023-05-09T03:09:31.704Z,1528.00
2023-05-09T03:10:31.774Z,1515.00
2023-05-09T03:11:31.900Z,1544.00
2023-05-09T03:12:31.893Z,1541.00
2023-05-09T03:13:31.950Z,1545.00
2023-05-09T03:14:32.013Z,1527.00
2023-05-09T03:15:32.152Z,1557.00
2023-05-09T03:16:32.164Z,1567.00
2023-05-09T03:17:32.206Z,1528.00
2023-05-09T03:18:32.261Z,1542.00
2023-05-09T03:19:32.311Z,1525.00
2023-05-09T03:20:32.404Z,1534.00
2023-05-09T03:21:32.448Z,1549.00
2023-05-09T03:22:32.523Z,1528.00
2023-05-09T03:23:32.573Z,1521.00
2023-05-09T03:24:32.623Z,1532.00
2023-05-09T03:25:32.694Z,1548.00
2023-05-09T03:26:32.708Z,1560.00
2023-05-09T03:27:32.823Z,1573.00
2023-05-09T03:28:32.856Z,1531.00
2023-05-09T03:29:32.874Z,1541.00
2023-05-09T03:30:32.952Z,1550.00
2023-05-09T03:31:33.185Z,1539.00
2023-05-09T03:32:33.102Z,1551.00
2023-05-09T03:33:33.140Z,1522.00
2023-05-09T03:34:33.186Z,1555.00
2023-05-09T03:35:33.241Z,1534.00
2023-05-09T03:36:33.316Z,1489.00
2023-05-09T03:37:33.372Z,1551.00
2023-05-09T03:38:33.418Z,1543.00
2023-05-09T03:39:33.488Z,1539.00
2023-05-09T03:40:33.555Z,1527.00
2023-05-09T03:41:33.611Z,1527.00
2023-05-09T03:42:33.677Z,1516.00
2023-05-09T03:43:33.764Z,1532.00
2023-05-09T03:44:33.770Z,1549.00
2023-05-09T03:45:33.826Z,1550.00
2023-05-09T03:46:33.943Z,1518.00
2023-05-09T03:47:34.137Z,1512.00
2023-05-09T03:48:34.005Z,1554.00
2023-05-09T03:49:34.065Z,1506.00
2023-05-09T03:50:34.121Z,1493.00
2023-05-09T03:51:34.201Z,1529.00
2023-05-09T03:52:34.274Z,1492.00
2023-05-09T03:53:34.321Z,1524.00
2023-05-09T03:54:34.356Z,1490.00
2023-05-09T03:55:34.407Z,1492.00
2023-05-09T03:56:34.460Z,1505.00
2023-05-09T03:57:34.535Z,1494.00
2023-05-09T03:58:34.620Z,1492.00
2023-05-09T03:59:34.644Z,1496.00
2023-05-09T04:00:34.730Z,1495.00
2023-05-09T04:01:34.814Z,1470.00
2023-05-09T04:02:34.969Z,1511.00
2023-05-09T04:03:35.075Z,1483.00
2023-05-09T04:04:34.965Z,1505.00
2023-05-09T04:05:35.007Z,1476.00
2023-05-09T04:06:35.091Z,1508.00
2023-05-09T04:07:35.160Z,1484.00
2023-05-09T04:08:35.223Z,1500.00
2023-05-09T04:09:35.291Z,1471.00
2023-05-09T04:10:35.342Z,1510.00
2023-05-09T04:11:35.417Z,1479.00
2023-05-09T04:12:35.466Z,1478.00
2023-05-09T04:13:35.532Z,1436.00
2023-05-09T04:14:35.590Z,1454.00
2023-05-09T04:15:35.660Z,1481.00
2023-05-09T04:16:35.754Z,1478.00
2023-05-09T04:17:35.857Z,1449.00
2023-05-09T04:18:35.834Z,1467.00
2023-05-09T04:19:35.956Z,1472.00
2023-05-09T04:20:35.933Z,1493.00
2023-05-09T04:21:35.991Z,1481.00
2023-05-09T04:22:36.073Z,1475.00
2023-05-09T04:23:36.130Z,1472.00
2023-05-09T04:24:36.148Z,1472.00
2023-05-09T04:25:36.215Z,1461.00
2023-05-09T04:26:36.269Z,1461.00
2023-05-09T04:27:36.353Z,1492.00
2023-05-09T04:28:36.389Z,1486.00
2023-05-09T04:29:36.443Z,1448.00
2023-05-09T04:30:36.512Z,1478.00
2023-05-09T04:31:36.643Z,1466.00
2023-05-09T04:32:36.619Z,1463.00
2023-05-09T04:33:36.704Z,1474.00
2023-05-09T04:34:36.726Z,1458.00
2023-05-09T04:35:36.871Z,1454.00
2023-05-09T04:36:36.875Z,1478.00
2023-05-09T04:37:36.916Z,1445.00
2023-05-09T04:38:37.019Z,1495.00
2023-05-09T04:39:37.029Z,1464.00
2023-05-09T04:40:37.112Z,1456.00
2023-05-09T04:41:37.186Z,1457.00
2023-05-09T04:42:37.242Z,1437.00
2023-05-09T04:43:37.288Z,1466.00
2023-05-09T04:44:37.327Z,1453.00
2023-05-09T04:45:37.389Z,1460.00
2023-05-09T04:46:37.484Z,1438.00
2023-05-09T04:47:37.535Z,1452.00
2023-05-09T04:48:37.559Z,1475.00
2023-05-09T04:49:37.629Z,1440.00
2023-05-09T04:50:37.691Z,1456.00
2023-05-09T04:51:37.802Z,1488.00
2023-05-09T04:52:37.799Z,1469.00
2023-05-09T04:53:37.868Z,1495.00
2023-05-09T04:54:37.909Z,1468.00
2023-05-09T04:55:37.996Z,1450.00
2023-05-09T04:56:38.016Z,1488.00
2023-05-09T04:57:38.139Z,1449.00
2023-05-09T04:58:38.151Z,1482.00
2023-05-09T04:59:38.190Z,1456.00
2023-05-09T05:00:38.254Z,1443.00
2023-05-09T05:01:38.312Z,1465.00
2023-05-09T05:02:38.375Z,1424.00
2023-05-09T05:03:38.456Z,1456.00
2023-05-09T05:04:38.497Z,1463.00
2023-05-09T05:05:38.580Z,1429.00
2023-05-09T05:06:38.579Z,1450.00
2023-05-09T05:07:38.725Z,1487.00
2023-05-09T05:08:38.688Z,1463.00
2023-05-09T05:09:38.762Z,1483.00
2023-05-09T05:10:38.785Z,1491.00
2023-05-09T05:11:39.487Z,1479.00
2023-05-09T05:12:38.914Z,1512.00
2023-05-09T05:13:38.985Z,1504.00
2023-05-09T05:14:39.054Z,1482.00
2023-05-09T05:15:39.073Z,1510.00
2023-05-09T05:16:39.246Z,1523.00
2023-05-09T05:17:39.244Z,1515.00
2023-05-09T05:18:39.251Z,1512.00
2023-05-09T05:19:39.308Z,1533.00
2023-05-09T05:20:39.366Z,1531.00
2023-05-09T05:21:39.466Z,1514.00
2023-05-09T05:22:39.505Z,1531.00
2023-05-09T05:23:39.646Z,1568.00
2023-05-09T05:24:39.648Z,1519.00
2023-05-09T05:25:39.694Z,1555.00
2023-05-09T05:26:39.786Z,1547.00
2023-05-09T05:27:39.802Z,1526.00
2023-05-09T05:28:39.875Z,1539.00
2023-05-09T05:29:39.933Z,1562.00
2023-05-09T05:30:39.972Z,1575.00
2023-05-09T05:31:40.087Z,1576.00
2023-05-09T05:32:40.093Z,1600.00
2023-05-09T05:33:40.355Z,1696.00
2023-05-09T05:34:40.206Z,1727.00
2023-05-09T05:35:40.232Z,1762.00
2023-05-09T05:36:40.305Z,1816.00
2023-05-09T05:37:40.359Z,1818.00
2023-05-09T05:38:40.381Z,1895.00
2023-05-09T05:39:40.604Z,1910.00
2023-05-09T05:40:40.481Z,2028.00
2023-05-09T05:41:40.539Z,2018.00
2023-05-09T05:42:40.595Z,2022.00
2023-05-09T05:43:40.611Z,2075.00
2023-05-09T05:44:40.654Z,2079.00
2023-05-09T05:45:40.767Z,2065.00
2023-05-09T05:46:40.710Z,2034.00
2023-05-09T05:47:40.777Z,1972.00
2023-05-09T05:48:40.769Z,1949.00
2023-05-09T05:49:40.817Z,1907.00
2023-05-09T05:50:40.864Z,1931.00
2023-05-09T05:51:40.875Z,1904.00
2023-05-09T05:52:40.938Z,1882.00
2023-05-09T05:53:40.952Z,1852.00
2023-05-09T05:54:40.985Z,1828.00
2023-05-09T05:55:41.114Z,1855.00
2023-05-09T05:56:41.055Z,1886.00
2023-05-09T05:57:41.106Z,1928.00
2023-05-09T05:58:41.174Z,1926.00
2023-05-09T05:59:41.335Z,1921.00
2023-05-09T06:00:41.224Z,1907.00
2023-05-09T06:01:41.363Z,1898.00
2023-05-09T06:02:41.461Z,1881.00
2023-05-09T06:03:41.352Z,1860.00
2023-05-09T06:04:41.351Z,1873.00
2023-05-09T06:05:41.386Z,1857.00
2023-05-09T06:06:41.431Z,1850.00
2023-05-09T06:07:41.527Z,1850.00
2023-05-09T06:08:41.512Z,1814.00
2023-05-09T06:09:41.546Z,1784.00
2023-05-09T06:10:41.605Z,1786.00
2023-05-09T06:11:41.719Z,1762.00
2023-05-09T06:12:41.863Z,1740.00
2023-05-09T06:13:41.873Z,1781.00
2023-05-09T06:14:41.737Z,1776.00
2023-05-09T06:15:41.814Z,1787.00
2023-05-09T06:16:41.886Z,1740.00
2023-05-09T06:17:41.899Z,1751.00
2023-05-09T06:18:42.396Z,1759.00
2023-05-09T06:19:41.966Z,1751.00
2023-05-09T06:20:41.985Z,1759.00
2023-05-09T06:21:42.079Z,1718.00
2023-05-09T06:22:42.088Z,1687.00
2023-05-09T06:23:57.047Z,1694.00
2023-05-09T06:24:43.103Z,1698.00
2023-05-09T06:25:42.121Z,1712.00
2023-05-09T06:26:42.121Z,1744.00
2023-05-09T06:27:42.168Z,1760.00
2023-05-09T06:28:42.095Z,1785.00
2023-05-09T06:29:42.079Z,1772.00
2023-05-09T06:30:42.066Z,1776.00
2023-05-09T06:31:42.074Z,1801.00
2023-05-09T06:32:42.051Z,1830.00
2023-05-09T06:33:42.031Z,1877.00
2023-05-09T06:34:42.374Z,1900.00
2023-05-09T06:35:42.037Z,1976.00
2023-05-09T06:36:42.064Z,1982.00
2023-05-09T06:37:42.077Z,2009.00
2023-05-09T06:38:42.255Z,2020.00
2023-05-09T06:39:42.120Z,1940.00
2023-05-09T06:40:42.156Z,1857.00
2023-05-09T06:41:42.161Z,1824.00
2023-05-09T06:42:42.194Z,1823.00
2023-05-09T06:43:42.312Z,1810.00
2023-05-09T06:44:42.274Z,1747.00
2023-05-09T06:45:42.305Z,1751.00
2023-05-09T06:46:42.369Z,1761.00
2023-05-09T06:47:42.370Z,1742.00
2023-05-09T06:48:42.405Z,1715.00
2023-05-09T06:49:42.395Z,1691.00
2023-05-09T06:50:42.453Z,1707.00
2023-05-09T06:51:42.474Z,1805.00
2023-05-09T06:52:42.514Z,1782.00
2023-05-09T06:53:42.886Z,1761.00
2023-05-09T06:54:42.578Z,1746.00
2023-05-09T06:55:42.622Z,1709.00
2023-05-09T06:56:42.768Z,1740.00
2023-05-09T06:57:42.818Z,1813.00
2023-05-09T06:58:43.016Z,1801.00
2023-05-09T06:59:42.984Z,1757.00
2023-05-09T07:00:42.801Z,1717.00
2023-05-09T07:01:42.953Z,1688.00
2023-05-09T07:02:42.893Z,1692.00
2023-05-09T07:03:42.900Z,1701.00
2023-05-09T07:04:43.385Z,1702.00
2023-05-09T07:05:42.960Z,1695.00
2023-05-09T07:06:42.984Z,1717.00
2023-05-09T07:07:42.998Z,1747.00
2023-05-09T07:08:43.043Z,1759.00
2023-05-09T07:09:43.079Z,1853.00
2023-05-09T07:10:43.086Z,1824.00
2023-05-09T07:11:43.117Z,1797.00
2023-05-09T07:12:43.159Z,1711.00
2023-05-09T07:13:43.180Z,1683.00
2023-05-09T07:14:43.397Z,1645.00
2023-05-09T07:15:43.558Z,1588.00
2023-05-09T07:16:43.321Z,1584.00
2023-05-09T07:17:43.307Z,1646.00
2023-05-09T07:18:43.299Z,1686.00
2023-05-09T07:19:43.394Z,1699.00
2023-05-09T07:20:43.349Z,1720.00
2023-05-09T07:21:43.415Z,1677.00
2023-05-09T07:22:43.400Z,1683.00
2023-05-09T07:23:43.401Z,1670.00
2023-05-09T07:24:43.902Z,1666.00
2023-05-09T07:25:43.443Z,1675.00
2023-05-09T07:26:43.468Z,1719.00
2023-05-09T07:27:43.507Z,1791.00
2023-05-09T07:28:43.497Z,1802.00
2023-05-09T07:29:43.953Z,1845.00
2023-05-09T07:30:43.604Z,1940.00
2023-05-09T07:31:43.593Z,1954.00
2023-05-09T07:32:43.550Z,1996.00
2023-05-09T07:33:43.905Z,2022.00
2023-05-09T07:34:43.887Z,2024.00
2023-05-09T07:35:43.528Z,2028.00
2023-05-09T07:36:43.599Z,2092.00
2023-05-09T07:37:43.627Z,2119.00
2023-05-09T07:38:44.019Z,2139.00
2023-05-09T07:39:43.965Z,2126.00
2023-05-09T07:40:43.806Z,2132.00
2023-05-09T07:41:44.246Z,2129.00
2023-05-09T07:42:43.891Z,2118.00
2023-05-09T07:43:44.005Z,2110.00
2023-05-09T07:44:44.032Z,2111.00
2023-05-09T07:45:44.105Z,2118.00
2023-05-09T07:46:44.132Z,2065.00
2023-05-09T07:47:44.311Z,2008.00
2023-05-09T07:48:44.231Z,2021.00
2023-05-09T07:49:44.290Z,2035.00
2023-05-09T07:50:44.338Z,2065.00
2023-05-09T07:51:44.374Z,2077.00
2023-05-09T07:52:44.441Z,2059.00
2023-05-09T07:53:44.474Z,1975.00
2023-05-09T07:54:44.894Z,1985.00
2023-05-09T07:55:44.529Z,1952.00
2023-05-09T07:56:44.575Z,1980.00
2023-05-09T07:57:44.619Z,2020.00
2023-05-09T07:58:44.621Z,2035.00
2023-05-09T07:59:44.893Z,2088.00
2023-05-09T08:00:44.729Z,2100.00
2023-05-09T08:01:44.736Z,2147.00
2023-05-09T08:02:44.923Z,2175.00
2023-05-09T08:03:45.028Z,2181.00
2023-05-09T08:04:44.841Z,2168.00
2023-05-09T08:05:44.888Z,2139.00
2023-05-09T08:06:44.972Z,2158.00
2023-05-09T08:07:44.986Z,2171.00
2023-05-09T08:08:45.053Z,2181.00
2023-05-09T08:09:45.069Z,2185.00
2023-05-09T08:10:45.098Z,2170.00
2023-05-09T08:11:45.124Z,2160.00
2023-05-09T08:12:45.192Z,2175.00
2023-05-09T08:13:45.237Z,2133.00
2023-05-09T08:14:45.254Z,2150.00
2023-05-09T08:15:45.339Z,2128.00
2023-05-09T08:16:45.330Z,2109.00
2023-05-09T08:17:45.459Z,2135.00
2023-05-09T08:18:45.460Z,2146.00
2023-05-09T08:19:45.515Z,2168.00
2023-05-09T08:20:45.470Z,2133.00
2023-05-09T08:21:45.530Z,2139.00
2023-05-09T08:22:45.573Z,2096.00
2023-05-09T08:23:45.910Z,2098.00
2023-05-09T08:24:45.641Z,1984.00
2023-05-09T08:25:45.684Z,1991.00
2023-05-09T08:26:45.735Z,2005.00
2023-05-09T08:27:45.782Z,2002.00
2023-05-09T08:28:45.886Z,1984.00
2023-05-09T08:29:45.866Z,2001.00
2023-05-09T08:30:45.938Z,1996.00
2023-05-09T08:31:46.015Z,2002.00
2023-05-09T08:32:46.041Z,1957.00
2023-05-09T08:33:46.060Z,1957.00
2023-05-09T08:34:46.137Z,1900.00
2023-05-09T08:35:46.220Z,1784.00
2023-05-09T08:36:46.219Z,1483.00
2023-05-09T08:37:46.258Z,1464.00
2023-05-09T08:38:46.319Z,1523.00
2023-05-09T08:39:46.421Z,1588.00
2023-05-09T08:40:46.389Z,1644.00
2023-05-09T08:41:46.491Z,1750.00
2023-05-09T08:42:46.488Z,1807.00
2023-05-09T08:43:46.924Z,1855.00
2023-05-09T08:44:46.596Z,1888.00
2023-05-09T08:45:46.623Z,1922.00
2023-05-09T08:46:46.686Z,1937.00
2023-05-09T08:47:46.782Z,1951.00
2023-05-09T08:48:46.962Z,1956.00
2023-05-09T08:49:46.808Z,1956.00
2023-05-09T08:50:46.848Z,1975.00
2023-05-09T08:51:46.891Z,1989.00
2023-05-09T08:52:46.924Z,1985.00
2023-05-09T08:53:47.436Z,1977.00
2023-05-09T08:54:47.022Z,2000.00
2023-05-09T08:55:47.061Z,1999.00
2023-05-09T08:56:47.144Z,2000.00
2023-05-09T08:57:47.124Z,2034.00
2023-05-09T08:58:47.167Z,2038.00
2023-05-09T08:59:47.199Z,2074.00
2023-05-09T09:00:47.238Z,2078.00
2023-05-09T09:01:47.384Z,2052.00
2023-05-09T09:02:47.355Z,2029.00
2023-05-09T09:03:47.377Z,1998.00
2023-05-09T09:04:47.427Z,1979.00
2023-05-09T09:05:47.515Z,1998.00
2023-05-09T09:06:47.493Z,1989.00
2023-05-09T09:07:47.576Z,1999.00
2023-05-09T09:08:47.931Z,1999.00
2023-05-09T09:09:47.618Z,2021.00
2023-05-09T09:10:47.758Z,2041.00
2023-05-09T09:11:47.683Z,2020.00
2023-05-09T09:12:50.070Z,1995.00
2023-05-09T09:13:47.839Z,1960.00
2023-05-09T09:14:47.957Z,1922.00
2023-05-09T09:15:47.918Z,1908.00
2023-05-09T09:16:48.022Z,1911.00
2023-05-09T09:17:48.050Z,1884.00
2023-05-09T09:18:48.054Z,1829.00
2023-05-09T09:19:48.092Z,1815.00
2023-05-09T09:20:48.110Z,1820.00
2023-05-09T09:21:48.166Z,1812.00
2023-05-09T09:22:48.239Z,1820.00
2023-05-09T09:23:48.344Z,1814.00
2023-05-09T09:24:48.452Z,1814.00
2023-05-09T09:25:48.352Z,1769.00
2023-05-09T09:26:48.398Z,1727.00
2023-05-09T09:27:48.372Z,1684.00
2023-05-09T09:28:48.418Z,1688.00
2023-05-09T09:29:49.003Z,1669.00
2023-05-09T09:30:48.491Z,1587.00
2023-05-09T09:31:48.522Z,1553.00
2023-05-09T09:32:48.621Z,1598.00
2023-05-09T09:33:48.625Z,1592.00
2023-05-09T09:34:48.952Z,1665.00
2023-05-09T09:35:48.689Z,1673.00
2023-05-09T09:36:48.713Z,1643.00
2023-05-09T09:37:48.742Z,1655.00
2023-05-09T09:38:48.764Z,1676.00
2023-05-09T09:39:49.076Z,1677.00
2023-05-09T09:40:48.785Z,1642.00
2023-05-09T09:41:48.855Z,1662.00
2023-05-09T09:42:48.852Z,1658.00
2023-05-09T09:43:48.849Z,1650.00
2023-05-09T09:44:48.975Z,1633.00
2023-05-09T09:45:49.000Z,1630.00
2023-05-09T09:46:48.920Z,1606.00
2023-05-09T09:47:48.991Z,1539.00
2023-05-09T09:48:48.977Z,1478.00
2023-05-09T09:49:49.490Z,1481.00
2023-05-09T09:50:49.025Z,1462.00
2023-05-09T09:51:49.025Z,1452.00
2023-05-09T09:52:49.082Z,1433.00
2023-05-09T09:53:49.070Z,1480.00
2023-05-09T09:54:49.473Z,1497.00
2023-05-09T09:55:49.162Z,1510.00
2023-05-09T09:56:49.106Z,1539.00
2023-05-09T09:57:49.143Z,1538.00
2023-05-09T09:58:49.150Z,1551.00
2023-05-09T09:59:49.148Z,1564.00
2023-05-09T10:00:49.173Z,1559.00
2023-05-09T10:01:49.235Z,1552.00
2023-05-09T10:02:49.244Z,1578.00
2023-05-09T10:03:49.259Z,1581.00
2023-05-09T10:04:49.237Z,1604.00
2023-05-09T10:05:49.217Z,1615.00
2023-05-09T10:06:49.258Z,1618.00
2023-05-09T10:07:49.260Z,1626.00
2023-05-09T10:08:49.347Z,1644.00
2023-05-09T10:09:49.298Z,1631.00
2023-05-09T10:10:49.312Z,1641.00
2023-05-09T10:11:49.394Z,1654.00
2023-05-09T10:12:49.371Z,1628.00
2023-05-09T10:13:49.345Z,1599.00
2023-05-09T10:14:49.455Z,1553.00
2023-05-09T10:15:53.537Z,1552.00
2023-05-09T10:16:49.377Z,1552.00
2023-05-09T10:17:49.405Z,1514.00
2023-05-09T10:18:49.460Z,1448.00
2023-05-09T10:19:49.485Z,1466.00
2023-05-09T10:20:49.294Z,1348.00
2023-05-09T10:21:49.273Z,1274.00
2023-05-09T10:22:49.282Z,1193.00
2023-05-09T10:23:49.283Z,1191.00
2023-05-09T10:24:49.490Z,1224.00
2023-05-09T10:25:49.277Z,1314.00
2023-05-09T10:26:49.261Z,1406.00
2023-05-09T10:27:49.338Z,1548.00
2023-05-09T10:28:49.229Z,1654.00
2023-05-09T10:29:49.235Z,1716.00
2023-05-09T10:30:49.221Z,1745.00
2023-05-09T10:31:49.278Z,1733.00
2023-05-09T10:32:49.261Z,1795.00
2023-05-09T10:33:49.218Z,1828.00
2023-05-09T10:34:49.472Z,1840.00
2023-05-09T10:35:49.214Z,1821.00
2023-05-09T10:36:49.189Z,1791.00
2023-05-09T10:37:49.156Z,1757.00
2023-05-09T10:38:49.174Z,1715.00
2023-05-09T10:39:49.161Z,1775.00
2023-05-09T10:40:49.152Z,1773.00
2023-05-09T10:41:49.142Z,1785.00
2023-05-09T10:42:49.157Z,1776.00
2023-05-09T10:43:49.251Z,1797.00
2023-05-09T10:44:49.468Z,1775.00
2023-05-09T10:45:49.127Z,1794.00
2023-05-09T10:46:49.117Z,1764.00
2023-05-09T10:47:49.126Z,1694.00
2023-05-09T10:48:49.162Z,1638.00
2023-05-09T10:49:49.478Z,1569.00
2023-05-09T10:50:49.063Z,1628.00
2023-05-09T10:51:49.066Z,1661.00
2023-05-09T10:52:49.060Z,1649.00
2023-05-09T10:53:49.078Z,1627.00
2023-05-09T10:54:49.469Z,1622.00
2023-05-09T10:55:49.052Z,1620.00
2023-05-09T10:56:49.050Z,1602.00
2023-05-09T10:57:49.030Z,1579.00
2023-05-09T10:58:49.049Z,1559.00
2023-05-09T10:59:49.550Z,1517.00
2023-05-09T11:00:49.057Z,1283.00
2023-05-09T11:01:49.063Z,1358.00
2023-05-09T11:02:49.098Z,1356.00
2023-05-09T11:03:49.218Z,1372.00
2023-05-09T11:04:49.052Z,1358.00
2023-05-09T11:05:49.054Z,1385.00
2023-05-09T11:06:49.044Z,1378.00
2023-05-09T11:07:49.040Z,1385.00
2023-05-09T11:08:49.057Z,1373.00
2023-05-09T11:09:49.060Z,1421.00
2023-05-09T11:10:49.069Z,1401.00
2023-05-09T11:11:49.068Z,1059.00
2023-05-09T11:12:49.066Z,997.00
2023-05-09T11:13:49.078Z,819.00
2023-05-09T11:14:49.505Z,481.00
2023-05-09T11:15:50.079Z,492.00
2023-05-09T11:16:49.194Z,400.00
2023-05-09T11:17:49.161Z,423.00
2023-05-09T11:18:49.105Z,479.00
2023-05-09T11:19:49.510Z,499.00
2023-05-09T11:20:49.158Z,505.00
2023-05-09T11:21:49.194Z,524.00
2023-05-09T11:22:49.199Z,489.00
2023-05-09T11:23:49.238Z,530.00
2023-05-09T11:24:49.256Z,508.00
2023-05-09T11:25:49.278Z,584.00
2023-05-09T11:26:49.333Z,634.00
2023-05-09T11:27:49.326Z,709.00
2023-05-09T11:28:49.400Z,769.00
2023-05-09T11:29:49.428Z,783.00
2023-05-09T11:30:49.435Z,707.00
2023-05-09T11:31:49.585Z,659.00
2023-05-09T11:32:49.532Z,555.00
2023-05-09T11:33:49.515Z,528.00
2023-05-09T11:34:49.564Z,498.00
2023-05-09T11:35:49.545Z,479.00
2023-05-09T11:36:49.577Z,500.00
2023-05-09T11:37:49.626Z,502.00
2023-05-09T11:38:49.620Z,500.00
2023-05-09T11:39:49.665Z,505.00
2023-05-09T11:40:49.645Z,485.00
2023-05-09T11:41:49.663Z,459.00
2023-05-09T11:42:49.749Z,427.00
2023-05-09T11:43:49.749Z,456.00
2023-05-09T11:44:49.783Z,519.00
2023-05-09T11:45:49.910Z,530.00
2023-05-09T11:46:49.793Z,507.00
2023-05-09T11:47:49.964Z,527.00
2023-05-09T11:48:49.862Z,522.00
2023-05-09T11:49:49.908Z,550.00
2023-05-09T11:50:49.971Z,497.00
2023-05-09T11:51:49.996Z,497.00
2023-05-09T11:52:50.028Z,494.00
2023-05-09T11:53:50.056Z,500.00
2023-05-09T11:54:50.167Z,574.00
2023-05-09T11:55:53.027Z,629.00
2023-05-09T11:56:50.148Z,763.00
2023-05-09T11:57:50.154Z,1096.00
2023-05-09T11:58:50.130Z,1205.00
2023-05-09T11:59:50.137Z,1430.00
2023-05-09T12:00:50.171Z,1458.00
2023-05-09T12:01:50.126Z,1496.00
2023-05-09T12:02:50.162Z,1517.00
2023-05-09T12:03:50.258Z,1621.00
2023-05-09T12:04:50.170Z,1700.00
2023-05-09T12:05:50.108Z,1785.00
2023-05-09T12:06:50.094Z,1833.00
2023-05-09T12:07:50.140Z,1892.00